Terminal Aerodrome Forecast
Issued by NWS

Home | Current Version | Previous Version | Text Only | Print | Product List | Glossary On
Versions: 1 2 3 4 5 6 7 8 9 10 11 12 13 14 15 16 17 18 19 20 21 22 23 24 25 26 27 28 29 30 31 32 33 34 35 36 37 38
394
FTUS41 KBOX 240524
TAFBED
TAF
KBED 240524Z 2406/2506 12006KT P6SM SCT150
     FM241000 08004KT P6SM -RA SCT010 BKN070
     FM241500 07009KT 3SM -RA OVC008
     FM241900 06009KT 5SM -RA OVC010
     FM242100 05009KT P6SM VCSH OVC010
     FM242300 05008KT P6SM VCSH OVC008=

USA.gov is the U.S. government's official web portal to all federal, state and local government web resources and services.